Pagina principale
METAR-TAF:

METAR-TAF

Aeroporti :

Aeroporto di Ulan Bator-Gengis Khan

Ulan Bator, Mongolia

latitudine: 47-55N, longitudine: 106-52E, altezza: 1306 m

Osservazione

Il bollettino è stato emesso 20 minuti fa, alle 23:30 UTC
Vento 2 kt da direzioni variabili
Temperature -26°C
Umidità 76%
Pressione 1020 hPa
Visibilità: 8000 m

METAR: ZMUB 202330Z VRB01MPS 8000NW NSC M26/M29 Q1020 NOSIG RMK QFE657.3 69 NT

Ora: 07:50 (23:50 UTC)

Previsione

Il bollettino è stato emesso 1 ora e 10 minuti fa, alle 22:40 UTC
Previsione valida dal 21 alle 00 UTC al 22 alle 06 UTC
Vento 4 kt da direzioni variabili
Visibilità: 6000 m
Nubi sparse ad un'altezza di 10000 ft
Evoluzione graduale
dal 21 alle 04 UTC al 21 alle 06 UTC
Visibilità 10 km o più
Evoluzione graduale
dal 21 alle 21 UTC al 21 alle 23 UTC
Visibilità: 6000 m

TAF: ZMUB 202240Z 2100/2206 VRB02MPS 6000 SCT100 TXM10/2107Z TNM25/2123Z BECMG 2104/2106 9999 NSW BECMG 2121/2123 6000

Osservazioni e previsioni meteorologiche di più di 4000 aeroporti (messaggi METAR e TAF).

Le stazioni disponibili sono rappresentate dai dischi gialli e rossi sulla carta.

Puntare il mouse per vedere il nome della stazione.

Clicca sopra per visualizzare le osservazioni e previsioni meteorologiche.

Per cambiare la mappa : fare clic sui pulsanti verdi con una croce nera per ingrandire, il pulsante verde con un trattino per diminuire, o sulla freccia verde per le mappe adiacenti.


METAR-TAF: